Terminal Aerodrome Forecast
Issued by NWS

Home | Current Version | Previous Version | Text Only | Print | Product List | Glossary On
Versions: 1 2 3 4 5 6 7 8 9 10 11 12 13 14
358
FTUS43 KMPX 261720
TAFRNH
TAF
KRNH 261720Z 2618/2718 29010G18KT P6SM SCT100 BKN250
     FM262000 33014G26KT P6SM SCT250
     FM270200 33007KT P6SM SKC
     FM270600 VRB02KT P6SM SKC
     FM270900 21005KT P6SM SCT100 SCT250
     FM271500 29014G24KT P6SM SCT040 SCT100=

USA.gov is the U.S. government's official web portal to all federal, state and local government web resources and services.